createdAt,value
2018-01-19T00:01:21.033Z,99.90
2018-01-19T00:03:48.633Z,99.90
2018-01-19T00:06:17.033Z,98.90
2018-01-19T00:08:45.409Z,98.30
2018-01-19T00:11:13.777Z,98.70
2018-01-19T00:13:41.417Z,98.60
2018-01-19T00:16:09.020Z,98.30
2018-01-19T00:18:36.633Z,98.40
2018-01-19T00:21:05.037Z,99.10
2018-01-19T00:23:32.657Z,99.10
2018-01-19T00:26:00.256Z,99.90
2018-01-19T00:28:27.898Z,99.90
2018-01-19T00:30:55.511Z,99.40
2018-01-19T00:33:23.888Z,99.00
2018-01-19T00:35:51.527Z,99.00
2018-01-19T00:38:19.128Z,99.90
2018-01-19T00:40:46.733Z,99.90
2018-01-19T00:43:15.141Z,98.50
2018-01-19T00:45:42.741Z,98.50
2018-01-19T00:48:10.344Z,99.30
2018-01-19T00:50:37.990Z,99.90
2018-01-19T00:53:05.592Z,98.50
2018-01-19T00:55:33.197Z,98.80
2018-01-19T00:58:00.836Z,99.20
2018-01-19T01:00:28.441Z,98.60
2018-01-19T01:02:56.814Z,97.90
2018-01-19T01:05:25.216Z,97.40
2018-01-19T01:07:53.593Z,97.10
2018-01-19T01:10:21.193Z,97.10
2018-01-19T01:12:49.608Z,97.70
2018-01-19T01:15:17.218Z,97.70
2018-01-19T01:17:44.831Z,97.60
2018-01-19T01:20:12.477Z,97.90
2018-01-19T01:22:40.087Z,97.20
2018-01-19T01:25:07.697Z,95.90
2018-01-19T01:27:35.362Z,95.60
2018-01-19T01:30:02.965Z,95.70
2018-01-19T01:32:30.573Z,95.80
2018-01-19T01:34:58.981Z,95.50
2018-01-19T01:37:26.590Z,95.60
2018-01-19T01:39:54.192Z,95.50
2018-01-19T01:42:22.610Z,94.20
2018-01-19T01:44:50.221Z,93.90
2018-01-19T01:47:17.821Z,93.20
2018-01-19T01:49:45.455Z,93.30
2018-01-19T01:52:13.057Z,92.50
2018-01-19T01:54:40.669Z,92.20
2018-01-19T01:57:09.078Z,90.70
2018-01-19T01:59:36.690Z,90.80
2018-01-19T02:02:04.305Z,90.40
2018-01-19T02:04:32.707Z,87.40
2018-01-19T02:07:00.321Z,87.40
2018-01-19T02:09:27.922Z,88.90
2018-01-19T02:11:55.557Z,87.30
2018-01-19T02:14:23.169Z,88.00
2018-01-19T02:16:50.773Z,86.50
2018-01-19T02:19:18.426Z,86.70
2018-01-19T02:21:46.033Z,87.40
2018-01-19T02:24:13.635Z,85.90
2018-01-19T02:26:41.277Z,87.30
2018-01-19T02:29:08.877Z,86.40
2018-01-19T02:31:36.482Z,85.00
2018-01-19T02:34:04.121Z,84.30
2018-01-19T02:36:31.726Z,84.80
2018-01-19T02:38:59.345Z,86.10
2018-01-19T02:41:26.983Z,86.50
2018-01-19T02:43:54.590Z,86.20
2018-01-19T02:46:22.202Z,84.80
2018-01-19T02:48:49.838Z,86.40
2018-01-19T02:51:17.446Z,84.70
2018-01-19T02:53:45.061Z,84.20
2018-01-19T02:56:13.465Z,83.50
2018-01-19T02:58:41.842Z,84.00
2018-01-19T03:01:09.446Z,84.10
2018-01-19T03:03:37.084Z,84.00
2018-01-19T03:06:04.685Z,84.40
2018-01-19T03:08:32.297Z,83.30
2018-01-19T03:10:59.940Z,83.60
2018-01-19T03:13:27.545Z,84.50
2018-01-19T03:15:55.144Z,81.70
2018-01-19T03:18:22.782Z,83.40
2018-01-19T03:20:50.401Z,82.60
2018-01-19T03:23:18.008Z,84.60
2018-01-19T03:25:45.642Z,85.20
2018-01-19T03:28:13.244Z,83.30
2018-01-19T03:30:41.620Z,81.60
2018-01-19T03:33:09.431Z,81.60
2018-01-19T03:35:37.083Z,82.40
2018-01-19T03:38:05.458Z,81.00
2018-01-19T03:40:33.860Z,81.00
2018-01-19T03:43:02.237Z,81.20
2018-01-19T03:45:29.846Z,81.20
2018-01-19T03:47:57.483Z,81.00
2018-01-19T03:50:25.081Z,83.20
2018-01-19T03:52:53.642Z,80.40
2018-01-19T03:55:21.274Z,80.30
2018-01-19T03:57:48.901Z,79.60
2018-01-19T04:00:16.520Z,78.70
2018-01-19T04:02:44.153Z,80.60
2018-01-19T04:05:11.757Z,80.10
2018-01-19T04:07:39.356Z,80.90
2018-01-19T04:10:06.993Z,79.70
2018-01-19T04:12:35.385Z,79.80
2018-01-19T04:15:03.002Z,79.80
2018-01-19T04:17:30.640Z,79.00
2018-01-19T04:19:58.242Z,80.90
2018-01-19T04:22:25.853Z,79.80
2018-01-19T04:24:53.486Z,81.30
2018-01-19T04:27:21.094Z,80.20
2018-01-19T04:29:48.701Z,80.50
2018-01-19T04:32:17.109Z,80.30
2018-01-19T04:34:44.716Z,80.30
2018-01-19T04:37:12.309Z,80.50
2018-01-19T04:39:39.946Z,80.10
2018-01-19T04:42:07.552Z,79.40
2018-01-19T04:44:35.158Z,79.10
2018-01-19T04:47:03.560Z,79.20
2018-01-19T04:49:31.173Z,79.20
2018-01-19T04:51:58.778Z,79.10
2018-01-19T04:54:26.414Z,78.00
2018-01-19T04:56:54.101Z,79.40
2018-01-19T04:59:21.708Z,77.90
2018-01-19T05:01:50.111Z,78.40
2018-01-19T05:04:18.484Z,78.80
2018-01-19T05:06:46.098Z,78.70
2018-01-19T05:09:13.759Z,80.10
2018-01-19T05:11:41.366Z,78.80
2018-01-19T05:14:08.969Z,79.80
2018-01-19T05:16:36.603Z,80.00
2018-01-19T05:19:04.211Z,81.10
2018-01-19T05:21:31.829Z,80.60
2018-01-19T05:23:59.465Z,81.60
2018-01-19T05:26:27.074Z,81.20
2018-01-19T05:28:54.684Z,80.30
2018-01-19T05:31:22.324Z,80.80
2018-01-19T05:33:49.931Z,80.60
2018-01-19T05:36:17.533Z,81.70
2018-01-19T05:38:45.167Z,81.30
2018-01-19T05:41:12.774Z,81.00
2018-01-19T05:43:40.385Z,81.80
2018-01-19T05:46:08.780Z,82.90
2018-01-19T05:48:36.405Z,82.80
2018-01-19T05:51:04.014Z,82.60
2018-01-19T05:53:32.417Z,81.20
2018-01-19T05:56:00.789Z,80.30
2018-01-19T05:58:29.184Z,81.50
2018-01-19T06:00:57.589Z,81.60
2018-01-19T06:03:25.961Z,81.30
2018-01-19T06:05:53.561Z,81.30
2018-01-19T06:08:21.233Z,81.00
2018-01-19T06:10:48.836Z,81.40
2018-01-19T06:13:16.437Z,81.30
2018-01-19T06:15:44.073Z,81.50
2018-01-19T06:18:11.681Z,81.30
2018-01-19T06:20:39.287Z,81.00
2018-01-19T06:23:07.688Z,80.70
2018-01-19T06:25:36.049Z,80.50
2018-01-19T06:28:03.664Z,80.50
2018-01-19T06:30:31.298Z,80.90
2018-01-19T06:32:58.908Z,80.60
2018-01-19T06:35:26.514Z,81.00
2018-01-19T06:37:54.154Z,80.30
2018-01-19T06:40:21.768Z,80.70
2018-01-19T06:42:49.385Z,80.40
2018-01-19T06:45:17.794Z,79.60
2018-01-19T06:47:45.401Z,79.50
2018-01-19T06:50:13.017Z,80.30
2018-01-19T06:52:40.689Z,80.60
2018-01-19T06:55:08.289Z,80.30
2018-01-19T06:57:36.674Z,81.20
2018-01-19T07:00:05.081Z,80.60
2018-01-19T07:02:32.691Z,80.60
2018-01-19T07:05:00.297Z,80.90
2018-01-19T07:07:28.704Z,80.70
2018-01-19T07:09:57.083Z,80.50
2018-01-19T07:12:25.500Z,81.00
2018-01-19T07:14:53.885Z,81.00
2018-01-19T07:17:22.249Z,81.40
2018-01-19T07:19:49.861Z,81.30
2018-01-19T07:22:17.497Z,80.40
2018-01-19T07:24:45.147Z,80.50
2018-01-19T07:27:12.741Z,79.90
2018-01-19T07:29:40.377Z,81.30
2018-01-19T07:32:07.986Z,81.30
2018-01-19T07:34:35.595Z,81.60
2018-01-19T07:37:03.234Z,83.40
2018-01-19T07:39:30.857Z,82.90
2018-01-19T07:41:58.460Z,81.90
2018-01-19T07:44:26.103Z,82.00
2018-01-19T07:46:54.556Z,81.90
2018-01-19T07:49:22.161Z,82.00
2018-01-19T07:51:49.797Z,82.50
2018-01-19T07:54:17.400Z,80.90
2018-01-19T07:56:45.775Z,80.90
2018-01-19T07:59:14.176Z,82.00
2018-01-19T08:01:42.564Z,82.10
2018-01-19T08:04:10.929Z,82.50
2018-01-19T08:06:38.564Z,82.60
2018-01-19T08:09:06.164Z,82.20
2018-01-19T08:11:33.771Z,81.90
2018-01-19T08:14:01.416Z,81.30
2018-01-19T08:16:29.018Z,82.10
2018-01-19T08:18:56.625Z,81.60
2018-01-19T08:21:24.261Z,81.70
2018-01-19T08:23:51.878Z,81.20
2018-01-19T08:26:19.484Z,81.90
2018-01-19T08:28:47.137Z,81.80
2018-01-19T08:31:15.513Z,81.80
2018-01-19T08:33:43.121Z,81.80
2018-01-19T08:36:10.752Z,82.30
2018-01-19T08:38:38.357Z,82.90
2018-01-19T08:41:06.726Z,82.40
2018-01-19T08:43:34.364Z,82.50
2018-01-19T08:46:01.969Z,83.00
2018-01-19T08:48:29.568Z,83.10
2018-01-19T08:50:57.969Z,82.50
2018-01-19T08:53:25.581Z,81.80
2018-01-19T08:55:53.193Z,80.90
2018-01-19T08:58:21.593Z,80.80
2018-01-19T09:00:49.968Z,79.60
2018-01-19T09:03:17.573Z,79.60
2018-01-19T09:05:45.207Z,79.50
2018-01-19T09:08:12.813Z,79.00
2018-01-19T09:10:41.176Z,79.10
2018-01-19T09:13:08.809Z,79.10
2018-01-19T09:15:36.413Z,77.90
2018-01-19T09:18:04.016Z,77.60
2018-01-19T09:20:32.420Z,76.10
2018-01-19T09:23:00.785Z,75.80
2018-01-19T09:25:28.397Z,75.80
2018-01-19T09:27:56.045Z,73.80
2018-01-19T09:30:24.421Z,71.70
2018-01-19T09:32:52.024Z,71.70
2018-01-19T09:35:19.668Z,71.80
2018-01-19T09:37:47.290Z,71.50
2018-01-19T09:40:14.898Z,72.00
2018-01-19T09:42:42.534Z,70.80
2018-01-19T09:45:10.141Z,71.70
2018-01-19T09:47:37.752Z,70.20
2018-01-19T09:50:06.157Z,72.60
2018-01-19T09:52:34.535Z,71.10
2018-01-19T09:55:02.905Z,70.90
2018-01-19T09:57:30.574Z,70.90
2018-01-19T09:59:58.169Z,71.40
2018-01-19T10:02:25.802Z,71.10
2018-01-19T10:04:53.436Z,70.10
2018-01-19T10:07:21.055Z,69.90
2018-01-19T10:09:48.665Z,69.70
2018-01-19T10:12:17.081Z,68.80
2018-01-19T10:14:44.686Z,68.70
2018-01-19T10:17:12.281Z,69.40
2018-01-19T10:19:39.914Z,66.00
2018-01-19T10:22:07.512Z,67.00
2018-01-19T10:24:35.127Z,66.60
2018-01-19T10:27:03.533Z,67.40
2018-01-19T10:29:31.915Z,69.50
2018-01-19T10:32:00.564Z,71.30
2018-01-19T10:34:28.205Z,71.30
2018-01-19T10:36:55.805Z,66.10
2018-01-19T10:39:23.414Z,63.60
2018-01-19T10:41:51.045Z,64.90
2018-01-19T10:44:18.652Z,63.70
2018-01-19T10:46:46.259Z,64.40
2018-01-19T10:49:14.665Z,64.50
2018-01-19T10:51:42.271Z,64.40
2018-01-19T10:54:09.872Z,66.00
2018-01-19T10:56:37.510Z,66.30
2018-01-19T10:59:05.122Z,68.30
2018-01-19T11:01:32.766Z,65.40
2018-01-19T11:04:00.396Z,65.80
2018-01-19T11:06:28.774Z,66.50
2018-01-19T11:08:57.154Z,65.30
2018-01-19T11:11:24.786Z,66.00
2018-01-19T11:13:52.434Z,67.00
2018-01-19T11:16:20.797Z,64.50
2018-01-19T11:18:48.437Z,64.50
2018-01-19T11:21:16.065Z,64.80
2018-01-19T11:23:44.433Z,62.70
2018-01-19T11:26:12.065Z,62.70
2018-01-19T11:28:39.665Z,59.40
2018-01-19T11:31:07.269Z,52.40
2018-01-19T11:33:35.664Z,39.70
2018-01-19T11:36:04.040Z,38.30
2018-01-19T11:38:31.644Z,38.30
2018-01-19T11:40:59.605Z,37.70
2018-01-19T11:43:27.976Z,34.90
2018-01-19T11:45:55.585Z,34.90
2018-01-19T11:48:24.273Z,32.30
2018-01-19T11:50:52.653Z,28.20
2018-01-19T11:53:20.253Z,28.30
2018-01-19T11:55:47.940Z,27.80
2018-01-19T11:58:15.540Z,27.60
2018-01-19T12:00:43.149Z,29.70
2018-01-19T12:03:10.793Z,28.70
2018-01-19T12:05:38.400Z,29.80
2018-01-19T12:08:06.769Z,27.30
2018-01-19T12:10:34.401Z,27.30
2018-01-19T12:13:02.012Z,29.00
2018-01-19T12:15:29.608Z,30.00
2018-01-19T12:17:57.256Z,30.30
2018-01-19T12:20:24.865Z,30.80
2018-01-19T12:22:53.244Z,31.90
2018-01-19T12:25:20.873Z,31.90
2018-01-19T12:27:48.477Z,32.00
2018-01-19T12:30:16.099Z,31.10
2018-01-19T12:32:43.729Z,30.20
2018-01-19T12:35:11.333Z,30.20
2018-01-19T12:37:39.709Z,29.90
2018-01-19T12:40:07.350Z,29.80
2018-01-19T12:42:34.987Z,29.70
2018-01-19T12:45:02.601Z,29.60
2018-01-19T12:47:30.249Z,30.30
2018-01-19T12:49:57.848Z,29.20
2018-01-19T12:52:25.507Z,28.90
2018-01-19T12:54:53.122Z,28.70
2018-01-19T12:57:20.733Z,28.00
2018-01-19T12:59:48.346Z,28.10
2018-01-19T13:02:16.009Z,28.20
2018-01-19T13:04:43.617Z,27.60
2018-01-19T13:07:11.234Z,27.50
2018-01-19T13:09:38.860Z,27.60
2018-01-19T13:12:06.467Z,26.30
2018-01-19T13:14:34.183Z,27.20
2018-01-19T13:17:01.832Z,27.60
2018-01-19T13:19:29.440Z,27.30
2018-01-19T13:21:57.077Z,26.50
2018-01-19T13:24:24.717Z,28.00
2018-01-19T13:26:53.080Z,25.80
2018-01-19T13:29:20.694Z,25.80
2018-01-19T13:31:49.089Z,26.60
2018-01-19T13:34:17.462Z,26.20
2018-01-19T13:36:45.064Z,26.20
2018-01-19T13:39:12.773Z,27.20
2018-01-19T13:41:40.385Z,28.70
2018-01-19T13:44:08.749Z,27.50
2018-01-19T13:46:36.380Z,28.00
2018-01-19T13:49:04.009Z,29.90
2018-01-19T13:51:31.616Z,28.90
2018-01-19T13:54:00.051Z,32.70
2018-01-19T13:56:27.645Z,32.60
2018-01-19T13:58:55.248Z,33.90
2018-01-19T14:01:23.656Z,37.50
2018-01-19T14:03:51.257Z,38.10
2018-01-19T14:06:18.869Z,37.40
2018-01-19T14:08:46.505Z,39.00
2018-01-19T14:11:14.105Z,41.60
2018-01-19T14:13:41.708Z,43.20
2018-01-19T14:16:10.104Z,45.10
2018-01-19T14:18:38.469Z,45.90
2018-01-19T14:21:06.076Z,45.90
2018-01-19T14:23:33.712Z,47.00
2018-01-19T14:26:01.313Z,45.80
2018-01-19T14:28:29.684Z,48.80
2018-01-19T14:30:57.321Z,48.80
2018-01-19T14:33:24.932Z,51.00
2018-01-19T14:35:52.532Z,52.50
2018-01-19T14:38:20.164Z,55.20
2018-01-19T14:40:47.765Z,55.20
2018-01-19T14:43:16.140Z,52.80
2018-01-19T14:45:43.785Z,52.80
2018-01-19T14:48:11.404Z,55.60
2018-01-19T14:50:39.782Z,58.10
2018-01-19T14:53:07.447Z,57.90
2018-01-19T14:55:35.069Z,59.80
2018-01-19T14:58:02.682Z,60.30
2018-01-19T15:00:30.321Z,60.00
2018-01-19T15:02:57.926Z,61.00
2018-01-19T15:05:25.541Z,61.10
2018-01-19T15:07:53.951Z,62.60
2018-01-19T15:10:21.562Z,61.80
2018-01-19T15:12:49.192Z,64.50
2018-01-19T15:15:17.598Z,64.90
2018-01-19T15:17:45.216Z,64.90
2018-01-19T15:20:12.825Z,64.80
2018-01-19T15:22:41.232Z,62.60
2018-01-19T15:25:08.833Z,62.60
2018-01-19T15:27:36.429Z,62.00
2018-01-19T15:30:04.069Z,63.10
2018-01-19T15:32:31.684Z,65.20
2018-01-19T15:34:59.286Z,65.60
2018-01-19T15:37:27.689Z,69.70
2018-01-19T15:39:55.298Z,69.60
2018-01-19T15:42:22.905Z,69.80
2018-01-19T15:44:50.562Z,68.70
2018-01-19T15:47:18.177Z,69.70
2018-01-19T15:49:45.784Z,69.30
2018-01-19T15:52:13.421Z,69.80
2018-01-19T15:54:41.789Z,69.30
2018-01-19T15:57:09.388Z,69.30
2018-01-19T15:59:37.797Z,70.50
2018-01-19T16:02:05.409Z,70.50
2018-01-19T16:04:33.016Z,71.20
2018-01-19T16:07:01.426Z,73.30
2018-01-19T16:09:29.042Z,73.20
2018-01-19T16:11:56.654Z,72.90
2018-01-19T16:14:25.065Z,79.20
2018-01-19T16:16:52.706Z,79.20
2018-01-19T16:19:20.313Z,80.30
2018-01-19T16:21:47.957Z,80.10
2018-01-19T16:24:15.565Z,79.40
2018-01-19T16:26:43.225Z,79.10
2018-01-19T16:29:10.854Z,80.20
2018-01-19T16:31:38.512Z,83.20
2018-01-19T16:34:06.127Z,83.20
2018-01-19T16:36:33.776Z,82.50
2018-01-19T16:39:01.380Z,83.10
2018-01-19T16:41:29.001Z,82.50
2018-01-19T16:43:56.652Z,85.10
2018-01-19T16:46:24.279Z,86.50
2018-01-19T16:48:51.893Z,86.10
2018-01-19T16:51:20.320Z,87.50
2018-01-19T16:53:47.932Z,87.50
2018-01-19T16:56:15.540Z,88.30
2018-01-19T16:58:43.188Z,88.70
2018-01-19T17:01:10.812Z,89.20
2018-01-19T17:03:38.426Z,89.50
2018-01-19T17:06:06.069Z,89.30
2018-01-19T17:08:33.702Z,89.40
2018-01-19T17:11:02.081Z,90.10
2018-01-19T17:13:30.484Z,90.10
2018-01-19T17:15:58.920Z,90.60
2018-01-19T17:18:26.528Z,90.60
2018-01-19T17:20:54.184Z,90.50
2018-01-19T17:23:21.803Z,90.10
2018-01-19T17:25:58.874Z,91.00
2018-01-19T17:28:26.496Z,91.70
2018-01-19T17:30:54.473Z,91.50
2018-01-19T17:33:22.397Z,91.20
2018-01-19T17:35:50.017Z,92.00
2018-01-19T17:38:17.633Z,93.90
2018-01-19T17:40:45.301Z,95.20
2018-01-19T17:43:12.929Z,94.80
2018-01-19T17:45:40.811Z,95.00
2018-01-19T17:48:09.208Z,94.90
2018-01-19T17:50:38.527Z,94.80
2018-01-19T17:53:06.149Z,94.90
2018-01-19T17:55:33.784Z,95.10
2018-01-19T17:58:01.441Z,95.50
2018-01-19T18:00:29.865Z,96.00
2018-01-19T18:02:57.560Z,96.10
2018-01-19T18:05:25.169Z,96.00
2018-01-19T18:07:53.752Z,96.00
2018-01-19T18:10:21.673Z,96.00
2018-01-19T18:12:49.299Z,95.70
2018-01-19T18:15:24.903Z,96.20
2018-01-19T18:17:53.785Z,96.20
2018-01-19T18:20:21.509Z,96.20
2018-01-19T18:22:49.178Z,96.10
2018-01-19T18:25:16.904Z,96.50
2018-01-19T18:27:45.382Z,96.40
2018-01-19T18:30:13.786Z,96.20
2018-01-19T18:32:41.406Z,96.20
2018-01-19T18:35:09.072Z,96.50
2018-01-19T18:37:36.781Z,96.10
2018-01-19T18:40:04.393Z,96.30
2018-01-19T18:42:32.815Z,96.00
2018-01-19T18:45:00.425Z,96.00
2018-01-19T18:47:28.037Z,96.10
2018-01-19T18:49:56.441Z,95.80
2018-01-19T18:52:24.968Z,95.80
2018-01-19T18:54:52.853Z,95.80
2018-01-19T18:57:20.496Z,95.70
2018-01-19T18:59:48.105Z,95.80
2018-01-19T19:02:15.717Z,95.80
2018-01-19T19:04:43.362Z,95.70
2018-01-19T19:07:11.131Z,95.70
2018-01-19T19:09:39.063Z,95.60
2018-01-19T19:12:07.509Z,95.50
2018-01-19T19:14:35.117Z,95.50
2018-01-19T19:17:03.989Z,96.00
2018-01-19T19:19:31.672Z,95.80
2018-01-19T19:21:59.568Z,95.70
2018-01-19T19:24:27.411Z,95.60
2018-01-19T19:26:55.057Z,95.60
2018-01-19T19:29:22.665Z,95.60
2018-01-19T19:31:50.282Z,95.70
2018-01-19T19:34:18.935Z,96.40
2018-01-19T19:36:47.784Z,96.50
2018-01-19T19:39:16.341Z,97.30
2018-01-19T19:41:43.983Z,96.60
2018-01-19T19:44:12.150Z,96.70
2018-01-19T19:46:39.796Z,97.00
2018-01-19T19:49:07.854Z,97.20
2018-01-19T19:51:35.469Z,96.80
2018-01-19T19:54:04.089Z,95.80
2018-01-19T19:56:31.772Z,95.80
2018-01-19T19:58:59.680Z,95.20
2018-01-19T20:01:27.355Z,95.20
2018-01-19T20:03:55.041Z,95.60
2018-01-19T20:06:22.709Z,95.30
2018-01-19T20:08:50.329Z,95.50
2018-01-19T20:11:18.749Z,95.40
2018-01-19T20:13:46.371Z,95.30
2018-01-19T20:16:13.993Z,95.50
2018-01-19T20:18:41.654Z,95.40
2018-01-19T20:21:09.333Z,95.40
2018-01-19T20:23:36.956Z,95.30
2018-01-19T20:26:04.638Z,95.60
2018-01-19T20:28:32.266Z,95.80
2018-01-19T20:30:59.932Z,96.10
2018-01-19T20:33:27.629Z,95.80
2018-01-19T20:35:55.244Z,95.80
2018-01-19T20:38:22.852Z,96.10
2018-01-19T20:40:50.504Z,96.10
2018-01-19T20:43:18.904Z,96.90
2018-01-19T20:45:47.296Z,97.10
2018-01-19T20:48:15.713Z,97.40
2018-01-19T20:50:43.325Z,97.40
2018-01-19T20:53:10.943Z,97.80
2018-01-19T20:55:38.593Z,97.90
2018-01-19T20:58:06.213Z,98.10
2018-01-19T21:00:33.828Z,98.50
2018-01-19T21:03:02.044Z,98.90
2018-01-19T21:05:30.422Z,99.10
2018-01-19T21:07:58.037Z,99.80
2018-01-19T21:10:25.681Z,99.00
2018-01-19T21:12:54.158Z,98.90
2018-01-19T21:15:22.649Z,99.40
2018-01-19T21:17:51.045Z,99.40
2018-01-19T21:20:18.663Z,99.40
2018-01-19T21:22:46.364Z,99.50
2018-01-19T21:25:14.013Z,98.70
2018-01-19T21:27:41.652Z,99.00
2018-01-19T21:30:10.134Z,99.00
2018-01-19T21:32:38.852Z,98.20
2018-01-19T21:35:06.557Z,98.40
2018-01-19T21:37:34.172Z,98.50
2018-01-19T21:40:01.830Z,98.20
2018-01-19T21:42:29.440Z,97.80
2018-01-19T21:44:57.112Z,97.60
2018-01-19T21:47:25.256Z,97.50
2018-01-19T21:49:52.889Z,97.50
2018-01-19T21:52:21.273Z,97.90
2018-01-19T21:54:49.691Z,98.00
2018-01-19T21:57:17.306Z,97.90
2018-01-19T21:59:44.945Z,97.30
2018-01-19T22:02:13.461Z,97.00
2018-01-19T22:04:41.081Z,97.10
2018-01-19T22:07:09.460Z,97.30
2018-01-19T22:09:37.109Z,97.30
2018-01-19T22:12:04.732Z,97.10
2018-01-19T22:14:33.269Z,97.00
2018-01-19T22:17:00.917Z,97.00
2018-01-19T22:19:28.528Z,97.40
2018-01-19T22:21:56.138Z,97.50
2018-01-19T22:24:24.652Z,96.70
2018-01-19T22:26:52.264Z,96.70
2018-01-19T22:29:21.392Z,96.30
2018-01-19T22:31:49.037Z,96.10
2018-01-19T22:34:16.645Z,95.70
2018-01-19T22:36:44.257Z,95.70
2018-01-19T22:39:12.933Z,95.70
2018-01-19T22:41:41.313Z,95.80
2018-01-19T22:44:09.832Z,95.70
2018-01-19T22:46:38.245Z,95.50
2018-01-19T22:49:05.882Z,95.50
2018-01-19T22:51:33.493Z,95.50
2018-01-19T22:54:03.168Z,95.30
2018-01-19T22:56:30.785Z,95.10
2018-01-19T22:58:58.392Z,94.80
2018-01-19T23:01:26.041Z,92.50
2018-01-19T23:03:54.150Z,92.00
2018-01-19T23:06:21.938Z,90.80
2018-01-19T23:08:49.599Z,90.10
2018-01-19T23:11:17.204Z,89.70
2018-01-19T23:13:44.909Z,89.60
2018-01-19T23:16:12.556Z,89.30
2018-01-19T23:18:41.962Z,88.40
2018-01-19T23:21:09.576Z,88.50
2018-01-19T23:23:37.219Z,88.70
2018-01-19T23:26:04.829Z,88.80
2018-01-19T23:28:32.448Z,88.50
2018-01-19T23:31:01.030Z,88.60
2018-01-19T23:33:28.646Z,88.50
2018-01-19T23:35:57.029Z,88.90
2018-01-19T23:38:24.670Z,88.90
2018-01-19T23:40:54.224Z,88.40
2018-01-19T23:43:21.845Z,88.50
2018-01-19T23:45:49.490Z,88.60
2018-01-19T23:48:17.869Z,87.00
2018-01-19T23:50:47.656Z,87.00
2018-01-19T23:53:15.317Z,86.70
2018-01-19T23:55:42.925Z,86.80
2018-01-19T23:58:10.536Z,86.60
